createdAt,value
2022-09-02T00:02:26.289Z,16.01
2022-09-02T00:04:53.964Z,16.04
2022-09-02T00:07:21.629Z,15.98
2022-09-02T00:09:49.276Z,15.86
2022-09-02T00:12:16.951Z,15.83
2022-09-02T00:14:44.589Z,15.75
2022-09-02T00:17:13.689Z,15.70
2022-09-02T00:19:41.499Z,15.61
2022-09-02T00:22:09.403Z,15.62
2022-09-02T00:24:37.258Z,15.72
2022-09-02T00:27:05.317Z,15.61
2022-09-02T00:29:33.016Z,15.58
2022-09-02T00:32:00.958Z,15.66
2022-09-02T00:34:30.106Z,15.65
2022-09-02T00:36:57.817Z,15.66
2022-09-02T00:39:26.103Z,15.50
2022-09-02T00:41:54.090Z,15.55
2022-09-02T00:44:22.472Z,15.64
2022-09-02T00:46:50.110Z,15.64
2022-09-02T00:49:24.223Z,15.57
2022-09-02T00:51:57.691Z,15.52
2022-09-02T00:54:29.073Z,15.37
2022-09-02T00:56:57.333Z,15.40
2022-09-02T00:59:31.362Z,15.41
2022-09-02T01:01:59.118Z,15.36
2022-09-02T01:04:27.533Z,15.33
2022-09-02T01:06:56.858Z,15.25
2022-09-02T01:09:24.517Z,15.25
2022-09-02T01:11:53.504Z,15.47
2022-09-02T01:14:21.223Z,15.62
2022-09-02T01:16:52.490Z,15.74
2022-09-02T01:19:24.969Z,15.52
2022-09-02T01:21:55.169Z,15.33
2022-09-02T01:24:26.549Z,15.19
2022-09-02T01:26:56.576Z,15.15
2022-09-02T01:29:25.452Z,15.04
2022-09-02T01:31:53.661Z,14.94
2022-09-02T01:34:22.806Z,14.88
2022-09-02T01:36:50.460Z,14.83
2022-09-02T01:39:19.473Z,14.71
2022-09-02T01:41:47.306Z,14.64
2022-09-02T01:44:16.098Z,14.73
2022-09-02T01:46:43.808Z,14.75
2022-09-02T01:49:11.510Z,14.62
2022-09-02T01:51:39.139Z,14.63
2022-09-02T01:54:07.295Z,14.62
2022-09-02T01:56:36.327Z,14.55
2022-09-02T01:59:04.586Z,14.54
2022-09-02T02:01:32.397Z,14.61
2022-09-02T02:04:01.018Z,14.67
2022-09-02T02:06:29.052Z,14.62
2022-09-02T02:08:56.700Z,14.67
2022-09-02T02:11:26.239Z,14.63
2022-09-02T02:13:55.279Z,14.67
2022-09-02T02:16:23.061Z,14.69
2022-09-02T02:18:50.775Z,14.76
2022-09-02T02:21:18.456Z,14.64
2022-09-02T02:23:48.539Z,14.51
2022-09-02T02:26:16.446Z,14.66
2022-09-02T02:28:44.480Z,14.62
2022-09-02T02:31:13.846Z,14.45
2022-09-02T02:33:41.702Z,14.39
2022-09-02T02:36:10.210Z,14.27
2022-09-02T02:38:40.000Z,14.33
2022-09-02T02:41:08.370Z,14.21
2022-09-02T02:43:36.992Z,14.23
2022-09-02T02:46:05.494Z,14.27
2022-09-02T02:48:35.462Z,14.09
2022-09-02T02:51:03.793Z,14.06
2022-09-02T02:53:32.200Z,14.17
2022-09-02T02:56:00.481Z,14.14
2022-09-02T02:58:28.227Z,14.10
2022-09-02T03:00:56.356Z,14.01
2022-09-02T03:03:24.354Z,13.84
2022-09-02T03:05:53.793Z,13.79
2022-09-02T03:08:22.319Z,13.88
2022-09-02T03:10:54.296Z,13.97
2022-09-02T03:13:22.945Z,13.89
2022-09-02T03:15:51.639Z,13.73
2022-09-02T03:18:20.146Z,13.78
2022-09-02T03:20:47.859Z,13.68
2022-09-02T03:23:17.928Z,13.60
2022-09-02T03:25:46.654Z,13.50
2022-09-02T03:28:15.362Z,13.43
2022-09-02T03:30:43.622Z,13.40
2022-09-02T03:33:11.294Z,13.33
2022-09-02T03:35:41.014Z,13.35
2022-09-02T03:38:09.762Z,13.41
2022-09-02T03:40:40.127Z,13.28
2022-09-02T03:43:07.893Z,13.35
2022-09-02T03:45:35.973Z,13.35
2022-09-02T03:48:04.495Z,13.42
2022-09-02T03:50:34.166Z,13.36
2022-09-02T03:53:02.175Z,13.34
2022-09-02T03:55:30.647Z,13.33
2022-09-02T03:58:00.310Z,13.27
2022-09-02T04:00:30.409Z,13.22
2022-09-02T04:02:58.324Z,13.20
2022-09-02T04:05:26.350Z,13.12
2022-09-02T04:07:53.845Z,12.99
2022-09-02T04:10:22.118Z,12.94
2022-09-02T04:12:50.636Z,12.87
2022-09-02T04:15:21.434Z,12.91
2022-09-02T04:17:49.266Z,12.79
2022-09-02T04:20:17.985Z,12.81
2022-09-02T04:22:45.713Z,12.70
2022-09-02T04:25:13.725Z,12.85
2022-09-02T04:27:41.644Z,12.70
2022-09-02T04:30:10.822Z,12.79
2022-09-02T04:32:40.903Z,12.72
2022-09-02T04:35:09.577Z,12.72
2022-09-02T04:37:37.349Z,12.72
2022-09-02T04:40:05.850Z,12.75
2022-09-02T04:42:34.281Z,12.81
2022-09-02T04:45:02.001Z,12.74
2022-09-02T04:47:29.597Z,12.76
2022-09-02T04:49:58.692Z,12.57
2022-09-02T04:52:27.059Z,12.53
2022-09-02T04:54:54.736Z,12.48
2022-09-02T04:57:22.577Z,12.50
2022-09-02T04:59:50.218Z,12.61
2022-09-02T05:02:20.265Z,12.65
2022-09-02T05:04:48.057Z,12.59
2022-09-02T05:07:17.124Z,12.68
2022-09-02T05:09:45.027Z,12.73
2022-09-02T05:12:13.198Z,12.84
2022-09-02T05:14:40.983Z,12.91
2022-09-02T05:17:08.674Z,13.00
2022-09-02T05:19:36.354Z,13.05
2022-09-02T05:22:04.552Z,13.05
2022-09-02T05:24:33.632Z,13.11
2022-09-02T05:27:01.302Z,13.27
2022-09-02T05:29:29.058Z,13.66
2022-09-02T05:31:56.661Z,13.87
2022-09-02T05:34:24.814Z,13.99
2022-09-02T05:36:52.600Z,14.24
2022-09-02T05:39:20.370Z,14.51
2022-09-02T05:41:49.465Z,14.77
2022-09-02T05:44:17.104Z,15.01
2022-09-02T05:46:48.696Z,15.29
2022-09-02T05:49:18.246Z,15.43
2022-09-02T05:51:48.802Z,15.60
2022-09-02T05:54:19.157Z,15.80
2022-09-02T05:56:53.706Z,16.04
2022-09-02T05:59:21.978Z,16.21
2022-09-02T06:01:50.078Z,16.06
2022-09-02T06:04:18.201Z,16.32
2022-09-02T06:06:45.878Z,16.51
2022-09-02T06:09:16.685Z,16.76
2022-09-02T06:11:49.215Z,17.12
2022-09-02T06:14:20.721Z,17.17
2022-09-02T06:16:50.347Z,17.30
2022-09-02T06:19:20.405Z,17.70
2022-09-02T06:21:48.971Z,17.95
2022-09-02T06:24:16.794Z,17.80
2022-09-02T06:26:45.433Z,18.28
2022-09-02T06:29:13.679Z,18.75
2022-09-02T06:31:44.319Z,18.98
2022-09-02T06:34:14.651Z,19.44
2022-09-02T06:36:43.270Z,19.34
2022-09-02T06:39:13.359Z,20.16
2022-09-02T06:41:42.577Z,20.30
2022-09-02T06:44:12.318Z,20.84
2022-09-02T06:46:47.307Z,21.51
2022-09-02T06:49:16.238Z,21.59
2022-09-02T06:51:45.514Z,22.39
2022-09-02T06:54:16.374Z,22.78
2022-09-02T06:56:48.731Z,22.79
2022-09-02T06:59:17.184Z,23.07
2022-09-02T07:01:47.363Z,23.45
2022-09-02T07:04:33.331Z,23.35
2022-09-02T07:07:01.092Z,23.30
2022-09-02T07:09:31.138Z,23.65
2022-09-02T07:12:04.276Z,23.99
2022-09-02T07:14:36.915Z,24.03
2022-09-02T07:17:06.875Z,24.95
2022-09-02T07:19:34.823Z,23.98
2022-09-02T07:22:04.002Z,23.56
2022-09-02T07:24:31.718Z,24.13
2022-09-02T07:26:59.434Z,24.15
2022-09-02T07:29:27.457Z,24.49
2022-09-02T07:31:55.166Z,25.08
2022-09-02T07:34:24.275Z,25.54
2022-09-02T07:36:52.561Z,25.40
2022-09-02T07:39:20.590Z,25.19
2022-09-02T07:41:50.271Z,24.97
2022-09-02T07:44:18.947Z,25.07
2022-09-02T07:46:46.939Z,25.35
2022-09-02T07:49:15.767Z,25.39
2022-09-02T07:51:49.440Z,25.24
2022-09-02T07:54:18.809Z,25.40
2022-09-02T07:56:46.604Z,25.12
2022-09-02T07:59:14.247Z,24.57
2022-09-02T08:04:18.643Z,25.09
2022-09-02T08:06:47.914Z,25.47
2022-09-02T08:09:15.701Z,26.35
2022-09-02T08:11:46.458Z,25.71
2022-09-02T08:14:18.047Z,24.75
2022-09-02T08:16:47.072Z,25.05
2022-09-02T08:19:15.719Z,25.62
2022-09-02T08:21:43.384Z,25.54
2022-09-02T08:24:12.505Z,25.31
2022-09-02T08:26:40.174Z,24.94
2022-09-02T08:29:09.603Z,24.87
2022-09-02T08:31:38.907Z,25.59
2022-09-02T08:34:07.029Z,26.16
2022-09-02T08:36:34.946Z,26.05
2022-09-02T08:39:04.601Z,26.03
2022-09-02T08:41:41.249Z,26.54
2022-09-02T08:44:11.537Z,26.53
2022-09-02T08:46:39.499Z,26.19
2022-09-02T08:49:11.781Z,26.02
2022-09-02T08:51:51.024Z,25.89
2022-09-02T08:54:27.293Z,25.67
2022-09-02T08:56:58.926Z,26.05
2022-09-02T08:59:29.331Z,25.77
2022-09-02T09:02:13.600Z,25.91
2022-09-02T09:05:12.860Z,26.68
2022-09-02T09:07:54.607Z,26.06
2022-09-02T09:10:29.729Z,26.82
2022-09-02T09:13:20.987Z,26.65
2022-09-02T09:15:55.229Z,26.61
2022-09-02T09:18:32.167Z,26.67
2022-09-02T09:20:59.932Z,27.27
2022-09-02T09:23:34.233Z,27.69
2022-09-02T09:26:08.429Z,27.26
2022-09-02T09:28:43.514Z,27.98
2022-09-02T09:31:15.062Z,28.10
2022-09-02T09:33:56.471Z,27.76
2022-09-02T09:36:45.026Z,28.50
2022-09-02T09:39:20.067Z,28.58
2022-09-02T09:41:49.611Z,27.64
2022-09-02T09:44:43.229Z,27.40
2022-09-02T09:47:17.932Z,28.20
2022-09-02T09:49:46.983Z,28.02
2022-09-02T09:52:24.497Z,28.02
2022-09-02T09:55:12.357Z,27.22
2022-09-02T09:57:44.682Z,27.25
2022-09-02T10:00:26.732Z,27.33
2022-09-02T10:02:57.881Z,27.59
2022-09-02T10:05:33.050Z,27.69
2022-09-02T10:08:03.259Z,28.21
2022-09-02T10:10:33.430Z,28.71
2022-09-02T10:16:12.207Z,27.98
2022-09-02T10:18:44.849Z,28.69
2022-09-02T10:21:27.965Z,28.68
2022-09-02T10:24:05.700Z,28.88
2022-09-02T10:27:23.754Z,28.84
2022-09-02T10:29:58.940Z,28.30
2022-09-02T10:32:43.236Z,29.02
2022-09-02T10:35:19.486Z,28.63
2022-09-02T10:38:01.846Z,29.00
2022-09-02T10:40:37.464Z,28.56
2022-09-02T10:43:07.570Z,28.46
2022-09-02T10:46:01.257Z,27.60
2022-09-02T10:48:40.775Z,27.57
2022-09-02T10:51:17.486Z,28.49
2022-09-02T10:54:17.642Z,28.31
2022-09-02T10:56:50.868Z,28.58
2022-09-02T10:59:23.001Z,28.26
2022-09-02T11:01:57.101Z,28.82
2022-09-02T11:04:38.877Z,29.11
2022-09-02T11:07:10.768Z,28.77
2022-09-02T11:09:42.411Z,29.08
2022-09-02T11:12:16.708Z,28.56
2022-09-02T11:14:56.253Z,28.54
2022-09-02T11:17:30.788Z,29.32
2022-09-02T11:20:09.488Z,29.43
2022-09-02T11:22:46.065Z,28.99
2022-09-02T11:25:18.675Z,29.29
2022-09-02T11:27:50.348Z,28.69
2022-09-02T11:30:21.509Z,29.83
2022-09-02T11:32:56.566Z,29.80
2022-09-02T11:35:27.942Z,29.50
2022-09-02T11:38:02.261Z,28.94
2022-09-02T11:40:39.096Z,29.84
2022-09-02T11:43:28.983Z,29.87
2022-09-02T11:46:28.319Z,29.40
2022-09-02T11:49:11.419Z,29.75
2022-09-02T11:52:04.389Z,29.23
2022-09-02T11:54:37.258Z,28.61
2022-09-02T11:57:07.298Z,28.47
2022-09-02T12:00:10.703Z,29.13
2022-09-02T12:02:46.134Z,29.56
2022-09-02T12:06:06.097Z,29.49
2022-09-02T12:09:09.413Z,28.84
2022-09-02T12:11:50.815Z,29.13
2022-09-02T12:15:07.448Z,29.28
2022-09-02T12:17:40.725Z,29.10
2022-09-02T12:20:11.148Z,29.63
2022-09-02T12:22:39.711Z,29.78
2022-09-02T12:25:22.069Z,29.54
2022-09-02T12:28:10.459Z,29.28
2022-09-02T12:30:56.448Z,28.85
2022-09-02T12:33:30.341Z,28.55
2022-09-02T12:35:59.069Z,28.47
2022-09-02T12:38:31.395Z,28.83
2022-09-02T12:41:13.721Z,28.75
2022-09-02T12:43:48.569Z,29.47
2022-09-02T12:46:22.856Z,29.85
2022-09-02T12:48:56.173Z,29.89
2022-09-02T12:51:38.594Z,29.61
2022-09-02T12:54:07.265Z,30.00
2022-09-02T12:56:34.843Z,29.59
2022-09-02T12:59:03.778Z,29.87
2022-09-02T13:01:38.553Z,29.80
2022-09-02T13:04:28.009Z,29.91
2022-09-02T13:07:21.773Z,29.89
2022-09-02T13:09:56.614Z,29.67
2022-09-02T13:12:39.027Z,29.55
2022-09-02T13:15:23.046Z,30.07
2022-09-02T13:18:03.742Z,29.51
2022-09-02T13:20:44.926Z,28.87
2022-09-02T13:23:31.203Z,29.44
2022-09-02T13:26:23.101Z,30.03
2022-09-02T13:29:18.086Z,29.88
2022-09-02T13:32:01.405Z,30.15
2022-09-02T13:34:29.490Z,30.46
2022-09-02T13:36:57.188Z,29.47
2022-09-02T13:39:26.390Z,30.38
2022-09-02T13:41:54.462Z,30.07
2022-09-02T13:44:23.069Z,30.10
2022-09-02T13:46:51.979Z,29.77
2022-09-02T13:49:27.704Z,30.24
2022-09-02T13:51:56.706Z,29.57
2022-09-02T13:54:34.467Z,29.71
2022-09-02T13:57:02.939Z,29.52
2022-09-02T13:59:38.288Z,29.58
2022-09-02T14:02:23.810Z,29.51
2022-09-02T14:04:55.861Z,30.15
2022-09-02T14:07:27.251Z,29.90
2022-09-02T14:09:58.782Z,29.86
2022-09-02T14:12:26.942Z,29.51
2022-09-02T14:14:54.818Z,29.95
2022-09-02T14:17:23.573Z,29.70
2022-09-02T14:19:51.383Z,29.64
2022-09-02T14:22:27.717Z,29.74
2022-09-02T14:24:55.457Z,29.21
2022-09-02T14:27:24.094Z,29.26
2022-09-02T14:29:55.576Z,29.61
2022-09-02T14:32:24.062Z,29.53
2022-09-02T14:35:06.415Z,30.03
2022-09-02T14:37:35.583Z,30.29
2022-09-02T14:40:06.963Z,30.21
2022-09-02T14:42:35.196Z,29.19
2022-09-02T14:45:05.638Z,29.51
2022-09-02T14:47:37.966Z,28.85
2022-09-02T14:50:05.885Z,29.21
2022-09-02T14:52:36.507Z,28.66
2022-09-02T14:55:06.261Z,28.97
2022-09-02T14:57:35.595Z,29.10
2022-09-02T15:00:05.686Z,28.76
2022-09-02T15:02:34.569Z,28.85
2022-09-02T15:05:03.196Z,28.59
2022-09-02T15:07:30.737Z,29.37
2022-09-02T15:09:59.639Z,29.11
2022-09-02T15:12:29.557Z,28.96
2022-09-02T15:14:57.537Z,28.97
2022-09-02T15:17:25.335Z,28.89
2022-09-02T15:19:53.114Z,28.67
2022-09-02T15:22:21.079Z,28.80
2022-09-02T15:24:49.180Z,28.73
2022-09-02T15:27:21.600Z,28.47
2022-09-02T15:29:49.466Z,28.42
2022-09-02T15:32:17.208Z,28.33
2022-09-02T15:34:44.791Z,28.61
2022-09-02T15:37:13.185Z,28.45
2022-09-02T15:39:41.216Z,28.08
2022-09-02T15:42:08.854Z,27.92
2022-09-02T15:44:37.722Z,27.86
2022-09-02T15:47:05.249Z,27.78
2022-09-02T15:49:32.756Z,27.62
2022-09-02T15:52:00.473Z,27.97
2022-09-02T15:54:27.956Z,27.81
2022-09-02T15:56:56.451Z,27.75
2022-09-02T15:59:24.014Z,27.92
2022-09-02T16:01:55.110Z,27.69
2022-09-02T16:04:23.331Z,27.67
2022-09-02T16:06:52.221Z,27.02
2022-09-02T16:09:20.373Z,27.41
2022-09-02T16:11:49.163Z,27.53
2022-09-02T16:14:21.002Z,27.56
2022-09-02T16:16:49.767Z,27.21
2022-09-02T16:19:21.411Z,27.41
2022-09-02T16:21:48.964Z,27.06
2022-09-02T16:24:18.045Z,26.92
2022-09-02T16:26:45.544Z,27.02
2022-09-02T16:29:14.627Z,27.10
2022-09-02T16:31:43.166Z,26.89
2022-09-02T16:34:11.753Z,27.02
2022-09-02T16:36:41.534Z,26.72
2022-09-02T16:39:10.613Z,26.54
2022-09-02T16:41:38.665Z,26.43
2022-09-02T16:44:08.098Z,26.41
2022-09-02T16:46:36.621Z,26.26
2022-09-02T16:49:04.629Z,26.09
2022-09-02T16:51:32.333Z,26.07
2022-09-02T16:54:02.202Z,26.16
2022-09-02T16:56:30.540Z,26.01
2022-09-02T16:59:01.119Z,26.11
2022-09-02T17:01:32.301Z,25.97
2022-09-02T17:04:00.348Z,25.86
2022-09-02T17:06:28.131Z,25.66
2022-09-02T17:08:55.698Z,25.65
2022-09-02T17:11:25.407Z,25.65
2022-09-02T17:13:53.486Z,25.61
2022-09-02T17:16:21.963Z,25.72
2022-09-02T17:18:49.515Z,25.70
2022-09-02T17:21:27.492Z,25.73
2022-09-02T17:23:55.490Z,25.55
2022-09-02T17:26:25.883Z,25.45
2022-09-02T17:28:54.774Z,25.56
2022-09-02T17:31:24.003Z,25.26
2022-09-02T17:33:51.801Z,25.00
2022-09-02T17:36:19.906Z,25.15
2022-09-02T17:38:47.378Z,25.11
2022-09-02T17:41:33.082Z,24.90
2022-09-02T17:44:01.875Z,24.91
2022-09-02T17:46:29.357Z,24.98
2022-09-02T17:49:15.915Z,24.83
2022-09-02T17:51:44.662Z,24.56
2022-09-02T17:54:13.251Z,24.51
2022-09-02T17:56:49.700Z,24.41
2022-09-02T17:59:25.338Z,24.41
2022-09-02T18:01:58.097Z,24.34
2022-09-02T18:04:32.048Z,24.45
2022-09-02T18:07:05.101Z,24.18
2022-09-02T18:09:32.815Z,24.42
2022-09-02T18:12:02.925Z,24.20
2022-09-02T18:14:36.918Z,24.16
2022-09-02T18:17:09.407Z,24.03
2022-09-02T18:19:45.945Z,24.02
2022-09-02T18:22:23.102Z,23.94
2022-09-02T18:25:00.090Z,23.69
2022-09-02T18:27:37.183Z,23.43
2022-09-02T18:30:07.882Z,23.29
2022-09-02T18:32:45.942Z,22.98
2022-09-02T18:35:21.415Z,22.65
2022-09-02T18:37:53.656Z,22.53
2022-09-02T18:40:28.491Z,22.18
2022-09-02T18:43:01.175Z,22.13
2022-09-02T18:45:33.183Z,22.03
2022-09-02T18:48:02.800Z,22.07
2022-09-02T18:50:49.293Z,21.86
2022-09-02T18:53:21.549Z,21.74
2022-09-02T18:55:49.684Z,21.62
2022-09-02T18:58:22.524Z,21.50
2022-09-02T19:00:55.380Z,21.55
2022-09-02T19:03:23.476Z,21.39
2022-09-02T19:05:51.251Z,21.12
2022-09-02T19:08:39.734Z,20.78
2022-09-02T19:11:09.410Z,20.57
2022-09-02T19:13:44.126Z,20.39
2022-09-02T19:16:13.384Z,20.42
2022-09-02T19:18:41.069Z,20.09
2022-09-02T19:21:10.434Z,20.06
2022-09-02T19:23:38.473Z,20.00
2022-09-02T19:26:06.722Z,19.82
2022-09-02T19:28:37.584Z,19.83
2022-09-02T19:31:05.526Z,19.82
2022-09-02T19:33:37.518Z,19.81
2022-09-02T19:36:05.498Z,19.82
2022-09-02T19:38:33.065Z,19.80
2022-09-02T19:41:03.063Z,19.63
2022-09-02T19:43:32.667Z,19.47
2022-09-02T19:46:01.267Z,19.32
2022-09-02T19:48:30.653Z,19.17
2022-09-02T19:51:00.161Z,19.08
2022-09-02T19:53:30.185Z,19.00
2022-09-02T19:55:58.920Z,19.07
2022-09-02T19:58:27.690Z,19.16
2022-09-02T20:00:56.980Z,19.06
2022-09-02T20:03:24.791Z,18.94
2022-09-02T20:05:53.526Z,18.94
2022-09-02T20:08:31.146Z,19.10
2022-09-02T20:11:01.295Z,19.21
2022-09-02T20:13:30.841Z,19.15
2022-09-02T20:15:58.619Z,18.90
2022-09-02T20:18:29.539Z,18.86
2022-09-02T20:20:59.913Z,18.81
2022-09-02T20:23:33.315Z,18.68
2022-09-02T20:26:12.252Z,18.58
2022-09-02T20:28:59.343Z,18.72
2022-09-02T20:31:42.360Z,18.74
2022-09-02T20:34:28.096Z,18.67
2022-09-02T20:37:05.711Z,18.64
2022-09-02T20:39:54.247Z,18.56
2022-09-02T20:42:48.639Z,18.31
2022-09-02T20:45:25.121Z,18.19
2022-09-02T20:48:02.144Z,18.14
2022-09-02T20:50:38.489Z,18.07
2022-09-02T20:53:13.810Z,18.05
2022-09-02T20:55:47.650Z,18.09
2022-09-02T20:58:29.239Z,18.01
2022-09-02T21:01:02.928Z,17.90
2022-09-02T21:03:40.926Z,17.91
2022-09-02T21:06:10.694Z,17.79
2022-09-02T21:08:42.055Z,17.79
2022-09-02T21:11:14.649Z,17.65
2022-09-02T21:13:47.100Z,17.49
2022-09-02T21:16:20.062Z,17.47
2022-09-02T21:18:51.135Z,17.44
2022-09-02T21:21:21.912Z,17.45
2022-09-02T21:23:51.950Z,17.52
2022-09-02T21:26:23.505Z,17.48
2022-09-02T21:28:55.475Z,17.41
2022-09-02T21:31:25.909Z,17.46
2022-09-02T21:33:55.586Z,17.27
2022-09-02T21:36:26.256Z,17.29
2022-09-02T21:38:55.658Z,17.26
2022-09-02T21:41:32.910Z,17.35
2022-09-02T21:44:06.194Z,17.35
2022-09-02T21:46:39.471Z,17.44
2022-09-02T21:49:14.610Z,17.31
2022-09-02T21:51:46.368Z,17.40
2022-09-02T21:54:27.390Z,17.43
2022-09-02T21:57:16.516Z,17.44
2022-09-02T21:59:50.501Z,17.67
2022-09-02T22:02:21.243Z,17.46
2022-09-02T22:04:56.225Z,17.35
2022-09-02T22:07:27.295Z,17.31
2022-09-02T22:10:03.131Z,17.26
2022-09-02T22:12:35.058Z,17.15
2022-09-02T22:15:07.697Z,17.12
2022-09-02T22:17:36.307Z,17.02
2022-09-02T22:20:07.441Z,17.00
2022-09-02T22:22:38.831Z,17.10
2022-09-02T22:25:08.172Z,17.08
2022-09-02T22:27:39.600Z,17.07
2022-09-02T22:30:09.005Z,17.18
2022-09-02T22:32:39.640Z,17.33
2022-09-02T22:35:10.798Z,17.25
2022-09-02T22:37:41.742Z,17.24
2022-09-02T22:40:11.302Z,17.21
2022-09-02T22:42:40.990Z,17.27
2022-09-02T22:45:27.923Z,17.41
2022-09-02T22:48:29.935Z,17.50
2022-09-02T22:51:19.243Z,17.54
2022-09-02T22:53:50.515Z,17.54
2022-09-02T22:56:20.027Z,17.53
2022-09-02T22:59:13.649Z,17.61
2022-09-02T23:01:44.767Z,17.85
2022-09-02T23:04:19.144Z,17.90
2022-09-02T23:06:46.597Z,17.90
2022-09-02T23:09:15.868Z,17.92
2022-09-02T23:11:49.221Z,17.95
2022-09-02T23:14:26.488Z,17.96
2022-09-02T23:17:03.656Z,17.85
2022-09-02T23:19:37.197Z,17.90
2022-09-02T23:22:10.015Z,17.97
2022-09-02T23:24:45.242Z,18.19
2022-09-02T23:27:17.757Z,18.21
2022-09-02T23:29:46.634Z,18.12
2022-09-02T23:32:32.967Z,18.10
2022-09-02T23:35:11.285Z,18.24
2022-09-02T23:37:46.689Z,18.34
2022-09-02T23:40:20.834Z,18.43
2022-09-02T23:42:48.649Z,18.59
2022-09-02T23:45:22.466Z,18.74
2022-09-02T23:47:59.535Z,18.93
2022-09-02T23:50:34.438Z,18.96
2022-09-02T23:53:06.633Z,18.93
2022-09-02T23:55:39.756Z,18.95
2022-09-02T23:58:15.953Z,18.99
